createdAt,value
2022-08-14T00:02:03.664Z,11.85
2022-08-14T00:04:35.831Z,11.13
2022-08-14T00:07:16.357Z,12.13
2022-08-14T00:10:01.650Z,11.07
2022-08-14T00:12:39.106Z,11.07
2022-08-14T00:15:15.582Z,11.73
2022-08-14T00:17:48.159Z,12.38
2022-08-14T00:20:30.452Z,11.05
2022-08-14T00:23:14.705Z,12.70
2022-08-14T00:25:59.097Z,12.82
2022-08-14T00:28:36.684Z,11.07
2022-08-14T00:31:06.702Z,13.25
2022-08-14T00:33:51.857Z,11.63
2022-08-14T00:36:37.179Z,12.88
2022-08-14T00:39:12.067Z,12.95
2022-08-14T00:41:39.419Z,12.45
2022-08-14T00:44:09.996Z,11.38
2022-08-14T00:46:43.572Z,11.25
2022-08-14T00:49:14.706Z,11.57
2022-08-14T00:51:45.559Z,10.82
2022-08-14T00:54:21.702Z,10.82
2022-08-14T00:56:55.181Z,13.45
2022-08-14T00:59:25.132Z,11.43
2022-08-14T01:04:51.259Z,10.20
2022-08-14T01:07:10.888Z,12.45
2022-08-14T01:09:41.659Z,13.25
2022-08-14T01:12:09.433Z,12.50
2022-08-14T01:14:38.015Z,11.48
2022-08-14T01:17:08.988Z,13.35
2022-08-14T01:19:54.797Z,12.57
2022-08-14T01:22:21.885Z,12.05
2022-08-14T01:24:54.044Z,12.50
2022-08-14T01:27:24.999Z,12.20
2022-08-14T01:30:03.825Z,12.93
2022-08-14T01:32:37.318Z,14.90
2022-08-14T01:36:03.644Z,12.75
2022-08-14T01:38:05.877Z,13.15
2022-08-14T01:40:36.599Z,10.73
2022-08-14T01:43:15.818Z,11.73
2022-08-14T01:45:48.835Z,15.07
2022-08-14T01:48:25.731Z,13.20
2022-08-14T01:50:52.793Z,11.85
2022-08-14T01:53:20.683Z,12.50
2022-08-14T01:55:51.647Z,13.30
2022-08-14T01:58:24.665Z,12.90
2022-08-14T02:00:58.526Z,11.70
2022-08-14T02:03:31.308Z,13.10
2022-08-14T02:06:00.071Z,15.02
2022-08-14T02:08:35.451Z,13.35
2022-08-14T02:11:22.342Z,12.23
2022-08-14T02:14:07.005Z,14.45
2022-08-14T02:16:45.353Z,15.38
2022-08-14T02:19:18.331Z,13.23
2022-08-14T02:21:50.766Z,13.65
2022-08-14T02:24:38.880Z,15.63
2022-08-14T02:28:25.149Z,12.95
2022-08-14T02:29:59.820Z,14.70
2022-08-14T02:32:30.562Z,14.00
2022-08-14T02:35:15.784Z,12.07
2022-08-14T02:37:48.032Z,13.40
2022-08-14T02:40:18.438Z,16.50
2022-08-14T02:42:54.058Z,13.60
2022-08-14T02:45:22.458Z,13.63
2022-08-14T02:47:53.765Z,16.52
2022-08-14T02:50:27.217Z,15.10
2022-08-14T02:52:57.242Z,13.75
2022-08-14T02:55:31.083Z,15.70
2022-08-14T02:58:03.253Z,13.05
2022-08-14T03:00:33.111Z,15.23
2022-08-14T03:03:01.795Z,14.15
2022-08-14T03:05:36.205Z,14.25
2022-08-14T03:08:15.702Z,15.68
2022-08-14T03:10:49.058Z,15.55
2022-08-14T03:13:20.904Z,14.68
2022-08-14T03:15:56.312Z,15.13
2022-08-14T03:18:30.800Z,13.63
2022-08-14T03:21:04.158Z,14.55
2022-08-14T03:23:36.520Z,15.20
2022-08-14T03:26:08.571Z,15.85
2022-08-14T03:28:39.221Z,14.93
2022-08-14T03:31:08.359Z,15.10
2022-08-14T03:33:41.215Z,16.30
2022-08-14T03:37:38.050Z,14.65
2022-08-14T03:39:14.716Z,16.45
2022-08-14T03:41:49.482Z,14.48
2022-08-14T03:45:19.481Z,15.80
2022-08-14T03:47:04.831Z,15.48
2022-08-14T03:49:32.225Z,17.70
2022-08-14T03:52:17.731Z,15.43
2022-08-14T03:54:52.626Z,15.57
2022-08-14T03:57:22.739Z,15.95
2022-08-14T03:59:49.971Z,15.90
2022-08-14T04:02:33.226Z,16.15
2022-08-14T04:05:12.932Z,14.68
2022-08-14T04:07:41.529Z,16.02
2022-08-14T04:10:31.602Z,15.15
2022-08-14T04:13:04.523Z,15.20
2022-08-14T04:15:56.524Z,17.90
2022-08-14T04:18:20.501Z,18.75
2022-08-14T04:20:54.982Z,14.60
2022-08-14T04:23:29.873Z,17.25
2022-08-14T04:26:08.256Z,16.60
2022-08-14T04:29:07.605Z,15.90
2022-08-14T04:32:58.210Z,16.83
2022-08-14T04:34:17.224Z,15.73
2022-08-14T04:37:08.242Z,12.23
2022-08-14T04:39:56.715Z,13.93
2022-08-14T04:42:47.428Z,19.13
2022-08-14T04:45:23.871Z,17.98
2022-08-14T04:48:12.746Z,16.25
2022-08-14T04:51:00.425Z,17.20
2022-08-14T04:53:35.466Z,10.35
2022-08-14T04:58:39.097Z,15.02
2022-08-14T05:01:12.601Z,14.73
2022-08-14T05:03:45.191Z,17.35
2022-08-14T05:06:37.818Z,15.50
2022-08-14T05:09:00.982Z,16.70
2022-08-14T05:11:29.437Z,15.65
2022-08-14T05:14:17.143Z,16.75
2022-08-14T05:16:46.614Z,17.70
2022-08-14T05:19:24.576Z,17.38
2022-08-14T05:22:15.648Z,19.23
2022-08-14T05:24:43.705Z,15.25
2022-08-14T05:27:10.699Z,14.75
2022-08-14T05:29:37.704Z,15.45
2022-08-14T05:32:07.667Z,12.32
2022-08-14T05:34:34.549Z,17.35
2022-08-14T05:37:03.153Z,15.18
2022-08-14T05:39:31.148Z,15.30
2022-08-14T05:41:59.042Z,16.63
2022-08-14T05:44:30.792Z,16.63
2022-08-14T05:46:58.654Z,15.30
2022-08-14T05:49:33.948Z,15.80
2022-08-14T05:52:02.762Z,16.40
2022-08-14T05:54:35.603Z,17.27
2022-08-14T05:57:04.928Z,15.65
2022-08-14T05:59:39.397Z,15.25
2022-08-14T06:02:10.197Z,16.35
2022-08-14T06:04:39.425Z,16.25
2022-08-14T06:07:06.910Z,17.60
2022-08-14T06:09:35.685Z,15.48
2022-08-14T06:12:09.087Z,16.55
2022-08-14T06:14:37.246Z,16.20
2022-08-14T06:17:06.201Z,16.52
2022-08-14T06:19:33.046Z,16.45
2022-08-14T06:21:59.906Z,17.40
2022-08-14T06:24:30.699Z,17.27
2022-08-14T06:27:04.821Z,15.70
2022-08-14T06:29:34.918Z,16.30
2022-08-14T06:32:37.619Z,15.95
2022-08-14T06:35:09.553Z,16.25
2022-08-14T06:37:51.876Z,13.13
2022-08-14T06:40:27.786Z,13.10
2022-08-14T06:43:03.349Z,14.45
2022-08-14T06:45:39.604Z,13.35
2022-08-14T06:48:21.523Z,15.40
2022-08-14T06:50:48.859Z,14.30
2022-08-14T06:53:17.738Z,10.95
2022-08-14T06:55:58.332Z,12.68
2022-08-14T06:58:30.952Z,12.77
2022-08-14T07:01:23.154Z,12.88
2022-08-14T07:04:23.929Z,15.00
2022-08-14T07:06:59.004Z,12.27
2022-08-14T07:09:28.338Z,14.68
2022-08-14T07:12:52.192Z,16.90
2022-08-14T07:15:01.471Z,13.02
2022-08-14T07:17:28.687Z,13.23
2022-08-14T07:19:59.499Z,13.13
2022-08-14T07:22:32.895Z,14.63
2022-08-14T07:25:13.574Z,13.77
2022-08-14T07:27:42.819Z,14.73
2022-08-14T07:30:33.978Z,15.38
2022-08-14T07:32:57.740Z,15.90
2022-08-14T07:35:24.541Z,13.70
2022-08-14T07:37:57.266Z,13.57
2022-08-14T07:40:27.670Z,16.52
2022-08-14T07:42:57.319Z,13.43
2022-08-14T07:45:42.097Z,14.00
2022-08-14T07:48:09.256Z,15.55
2022-08-14T07:50:42.360Z,15.98
2022-08-14T07:53:14.344Z,12.55
2022-08-14T07:55:42.921Z,13.98
2022-08-14T07:58:30.661Z,14.82
2022-08-14T08:03:30.342Z,13.00
2022-08-14T08:05:57.783Z,13.88
2022-08-14T08:08:26.956Z,14.05
2022-08-14T08:11:02.810Z,14.23
2022-08-14T08:13:33.593Z,12.85
2022-08-14T08:16:02.073Z,13.55
2022-08-14T08:18:31.157Z,13.68
2022-08-14T08:20:59.212Z,14.10
2022-08-14T08:23:34.948Z,13.77
2022-08-14T08:26:08.071Z,11.98
2022-08-14T08:28:35.729Z,13.02
2022-08-14T08:31:05.765Z,14.57
2022-08-14T08:33:36.963Z,13.23
2022-08-14T08:36:08.284Z,13.90
2022-08-14T08:39:16.330Z,14.30
2022-08-14T08:41:28.034Z,12.73
2022-08-14T08:44:05.524Z,12.80
2022-08-14T08:46:33.214Z,14.98
2022-08-14T08:51:33.594Z,13.50
2022-08-14T08:54:06.125Z,13.27
2022-08-14T08:56:56.064Z,12.88
2022-08-14T08:59:27.320Z,12.82
2022-08-14T09:02:01.653Z,13.75
2022-08-14T09:04:36.082Z,11.82
2022-08-14T09:07:14.564Z,11.43
2022-08-14T09:10:00.190Z,12.82
2022-08-14T09:12:33.096Z,11.05
2022-08-14T09:15:11.447Z,10.38
2022-08-14T09:17:41.351Z,12.25
2022-08-14T09:20:11.733Z,15.20
2022-08-14T09:22:47.740Z,11.93
2022-08-14T09:25:16.901Z,15.32
2022-08-14T09:27:44.009Z,12.70
2022-08-14T09:30:31.160Z,12.23
2022-08-14T09:35:45.547Z,13.00
2022-08-14T09:38:40.544Z,14.50
2022-08-14T09:41:23.411Z,14.00
2022-08-14T09:44:06.459Z,11.57
2022-08-14T09:46:34.597Z,12.30
2022-08-14T09:49:06.574Z,14.93
2022-08-14T09:51:45.098Z,12.57
2022-08-14T09:54:23.315Z,11.73
2022-08-14T09:56:57.055Z,11.75
2022-08-14T09:59:32.058Z,12.52
2022-08-14T10:02:01.121Z,14.45
2022-08-14T10:04:36.691Z,11.07
2022-08-14T10:07:08.588Z,12.85
2022-08-14T10:09:59.701Z,10.68
2022-08-14T10:12:43.216Z,11.88
2022-08-14T10:15:20.560Z,10.32
2022-08-14T10:17:49.349Z,10.95
2022-08-14T10:20:39.531Z,9.68
2022-08-14T10:23:18.052Z,10.05
2022-08-14T10:25:50.829Z,10.40
2022-08-14T10:28:57.471Z,11.27
2022-08-14T10:31:17.749Z,13.25
2022-08-14T10:34:12.591Z,10.77
2022-08-14T10:36:44.993Z,10.38
2022-08-14T10:39:26.004Z,10.35
2022-08-14T10:42:16.712Z,11.90
2022-08-14T10:44:52.559Z,10.60
2022-08-14T10:47:39.978Z,10.07
2022-08-14T10:50:07.777Z,10.85
2022-08-14T10:52:42.265Z,11.10
2022-08-14T10:55:19.442Z,12.07
2022-08-14T10:57:53.735Z,15.02
2022-08-14T11:00:30.166Z,12.20
2022-08-14T11:03:11.177Z,11.68
2022-08-14T11:05:54.930Z,13.38
2022-08-14T11:08:34.159Z,10.63
2022-08-14T11:11:05.448Z,11.23
2022-08-14T11:13:33.083Z,11.23
2022-08-14T11:16:02.095Z,9.60
2022-08-14T11:18:35.900Z,10.35
2022-08-14T11:21:08.286Z,10.15
2022-08-14T11:23:40.894Z,10.50
2022-08-14T11:26:10.427Z,11.02
2022-08-14T11:28:47.018Z,8.38
2022-08-14T11:31:22.189Z,12.07
2022-08-14T11:33:55.339Z,10.05
2022-08-14T11:36:35.164Z,11.88
2022-08-14T11:39:35.078Z,11.73
2022-08-14T11:42:57.774Z,11.43
2022-08-14T11:45:00.350Z,9.98
2022-08-14T11:47:35.603Z,9.48
2022-08-14T11:50:33.636Z,10.27
2022-08-14T11:53:04.793Z,10.10
2022-08-14T11:55:38.528Z,9.95
2022-08-14T11:58:12.000Z,10.20
2022-08-14T12:00:54.845Z,10.55
2022-08-14T12:03:38.104Z,12.30
2022-08-14T12:06:27.905Z,9.98
2022-08-14T12:08:59.876Z,12.25
2022-08-14T12:11:43.355Z,9.73
2022-08-14T12:14:30.981Z,9.98
2022-08-14T12:17:12.014Z,10.35
2022-08-14T12:19:56.571Z,10.95
2022-08-14T12:22:35.885Z,11.57
2022-08-14T12:25:11.498Z,10.27
2022-08-14T12:27:53.389Z,10.75
2022-08-14T12:30:39.469Z,12.05
2022-08-14T12:33:30.719Z,9.15
2022-08-14T12:36:07.320Z,9.23
2022-08-14T12:38:37.447Z,9.60
2022-08-14T12:41:20.235Z,9.43
2022-08-14T12:43:53.537Z,10.02
2022-08-14T12:46:26.884Z,9.70
2022-08-14T12:48:56.926Z,8.13
2022-08-14T12:51:27.195Z,11.63
2022-08-14T12:53:56.609Z,11.98
2022-08-14T12:56:33.234Z,9.35
2022-08-14T12:59:02.164Z,11.02
2022-08-14T13:02:00.039Z,9.70
2022-08-14T13:04:21.510Z,9.35
2022-08-14T13:06:50.485Z,8.38
2022-08-14T13:09:19.146Z,9.35
2022-08-14T13:11:49.431Z,9.05
2022-08-14T13:14:29.873Z,9.65
2022-08-14T13:16:58.598Z,8.73
2022-08-14T13:19:26.652Z,8.73
2022-08-14T13:22:05.997Z,9.52
2022-08-14T13:24:38.866Z,9.35
2022-08-14T13:27:09.763Z,9.43
2022-08-14T13:29:44.686Z,9.52
2022-08-14T13:32:15.173Z,8.02
2022-08-14T13:34:46.138Z,7.65
2022-08-14T13:37:15.314Z,9.80
2022-08-14T13:39:56.579Z,8.77
2022-08-14T13:42:30.092Z,8.52
2022-08-14T13:45:04.192Z,8.90
2022-08-14T13:47:33.250Z,9.60
2022-08-14T13:50:04.999Z,10.98
2022-08-14T13:52:55.195Z,7.40
2022-08-14T13:55:27.853Z,11.20
2022-08-14T13:58:03.183Z,10.07
2022-08-14T14:00:53.383Z,8.80
2022-08-14T14:03:23.812Z,9.55
2022-08-14T14:05:54.975Z,7.45
2022-08-14T14:08:45.817Z,9.70
2022-08-14T14:11:15.769Z,10.10
2022-08-14T14:13:46.421Z,11.25
2022-08-14T14:16:26.165Z,8.52
2022-08-14T14:19:06.682Z,9.52
2022-08-14T14:21:37.497Z,10.23
2022-08-14T14:24:06.254Z,10.70
2022-08-14T14:26:36.125Z,11.57
2022-08-14T14:29:06.183Z,9.35
2022-08-14T14:31:39.016Z,7.97
2022-08-14T14:34:29.582Z,9.13
2022-08-14T14:37:04.537Z,9.90
2022-08-14T14:39:37.685Z,9.50
2022-08-14T14:42:32.252Z,9.48
2022-08-14T14:47:33.451Z,10.15
2022-08-14T14:50:01.029Z,9.50
2022-08-14T14:52:29.891Z,10.30
2022-08-14T14:57:35.134Z,9.10
2022-08-14T15:00:12.423Z,9.80
2022-08-14T15:02:43.283Z,9.48
2022-08-14T15:05:14.148Z,10.00
2022-08-14T15:07:42.650Z,9.80
2022-08-14T15:10:27.715Z,9.63
2022-08-14T15:13:03.544Z,10.43
2022-08-14T15:15:36.853Z,9.48
2022-08-14T15:18:35.818Z,10.65
2022-08-14T15:20:57.444Z,11.25
2022-08-14T15:23:32.508Z,9.90
2022-08-14T15:26:24.515Z,9.52
2022-08-14T15:29:03.052Z,9.40
2022-08-14T15:31:34.933Z,11.50
2022-08-14T15:34:46.112Z,11.00
2022-08-14T15:37:06.134Z,10.32
2022-08-14T15:39:41.241Z,11.00
2022-08-14T15:42:16.092Z,10.88
2022-08-14T15:44:58.608Z,11.75
2022-08-14T15:47:30.002Z,10.25
2022-08-14T15:50:03.858Z,10.15
2022-08-14T15:52:34.820Z,12.13
2022-08-14T15:55:09.158Z,10.57
2022-08-14T15:57:39.174Z,10.00
2022-08-14T16:00:49.711Z,10.32
2022-08-14T16:03:27.180Z,10.02
2022-08-14T16:06:15.495Z,9.80
2022-08-14T16:08:58.819Z,9.45
2022-08-14T16:11:32.769Z,10.43
2022-08-14T16:14:01.083Z,10.55
2022-08-14T16:16:34.918Z,12.90
2022-08-14T16:19:19.520Z,10.82
2022-08-14T16:22:02.297Z,11.15
2022-08-14T16:25:02.271Z,10.20
2022-08-14T16:30:20.586Z,9.35
2022-08-14T16:32:56.778Z,11.60
2022-08-14T16:50:40.716Z,10.00
2022-08-14T16:53:12.756Z,10.13
2022-08-14T16:55:53.723Z,10.13
2022-08-14T16:58:29.905Z,10.90
2022-08-14T17:01:22.865Z,11.32
2022-08-14T17:04:24.973Z,11.45
2022-08-14T17:06:57.424Z,10.60
2022-08-14T17:09:29.815Z,11.00
2022-08-14T17:12:07.335Z,9.98
2022-08-14T17:14:58.020Z,11.48
2022-08-14T17:17:58.283Z,10.82
2022-08-14T17:20:39.744Z,11.55
2022-08-14T17:23:15.329Z,10.68
2022-08-14T17:25:49.361Z,10.48
2022-08-14T17:28:51.917Z,10.50
2022-08-14T17:31:08.269Z,13.45
2022-08-14T17:33:40.491Z,10.00
2022-08-14T17:36:20.779Z,11.75
2022-08-14T17:42:03.023Z,11.00
2022-08-14T17:44:34.048Z,11.85
2022-08-14T17:49:51.903Z,14.50
2022-08-14T17:52:34.598Z,11.85
2022-08-14T17:55:09.820Z,13.32
2022-08-14T17:57:41.404Z,11.07
2022-08-14T18:02:39.477Z,9.70
2022-08-14T18:05:08.629Z,11.32
2022-08-14T18:07:59.248Z,11.52
2022-08-14T18:10:55.019Z,11.88
2022-08-14T18:13:12.627Z,11.60
2022-08-14T18:15:45.012Z,12.65
2022-08-14T18:18:18.127Z,12.30
2022-08-14T18:21:40.316Z,12.38
2022-08-14T18:23:32.575Z,11.10
2022-08-14T18:26:37.715Z,11.50
2022-08-14T18:28:59.691Z,12.07
2022-08-14T18:31:26.543Z,11.65
2022-08-14T18:34:30.878Z,11.63
2022-08-14T18:37:06.970Z,13.55
2022-08-14T18:40:01.863Z,12.75
2022-08-14T18:45:01.139Z,16.70
2022-08-14T18:47:56.564Z,12.73
2022-08-14T18:50:27.122Z,13.25
2022-08-14T18:53:07.787Z,13.13
2022-08-14T18:55:36.002Z,13.48
2022-08-14T18:58:11.701Z,13.85
2022-08-14T19:00:56.103Z,14.93
2022-08-14T19:03:36.457Z,17.35
2022-08-14T19:06:10.308Z,17.10
2022-08-14T19:08:48.816Z,13.80
2022-08-14T19:11:38.112Z,14.25
2022-08-14T19:14:06.558Z,14.05
2022-08-14T19:16:35.643Z,12.05
2022-08-14T19:19:08.857Z,13.88
2022-08-14T19:21:39.485Z,13.32
2022-08-14T19:24:27.986Z,13.55
2022-08-14T19:27:23.239Z,12.80
2022-08-14T19:30:20.081Z,11.48
2022-08-14T19:32:50.764Z,13.80
2022-08-14T19:35:19.360Z,13.43
2022-08-14T19:37:55.265Z,11.90
2022-08-14T19:40:42.877Z,14.95
2022-08-14T19:43:22.717Z,11.38
2022-08-14T19:46:39.114Z,13.13
2022-08-14T19:48:57.264Z,12.30
2022-08-14T19:51:25.219Z,11.77
2022-08-14T19:54:13.315Z,16.40
2022-08-14T19:56:45.958Z,12.73
2022-08-14T19:59:19.171Z,12.00
2022-08-14T20:01:51.408Z,13.60
2022-08-14T20:04:46.767Z,12.35
2022-08-14T20:07:59.733Z,12.20
2022-08-14T20:11:03.050Z,14.05
2022-08-14T20:13:32.296Z,12.18
2022-08-14T20:16:12.825Z,13.05
2022-08-14T20:18:50.626Z,12.45
2022-08-14T20:21:18.615Z,11.65
2022-08-14T20:23:48.257Z,15.05
2022-08-14T20:26:30.756Z,13.90
2022-08-14T20:29:04.324Z,12.80
2022-08-14T20:31:37.579Z,13.90
2022-08-14T20:34:25.002Z,13.18
2022-08-14T20:37:11.540Z,12.02
2022-08-14T20:39:43.659Z,12.98
2022-08-14T20:42:33.356Z,12.65
2022-08-14T20:48:07.251Z,12.05
2022-08-14T20:50:36.726Z,13.55
2022-08-14T20:53:35.779Z,13.02
2022-08-14T20:56:28.608Z,15.63
2022-08-14T20:58:57.292Z,20.48
2022-08-14T21:01:24.119Z,17.45
2022-08-14T21:07:23.013Z,16.23
2022-08-14T21:10:03.335Z,15.45
2022-08-14T21:12:34.894Z,17.42
2022-08-14T21:14:59.798Z,24.83
2022-08-14T21:17:29.436Z,30.60
2022-08-14T21:19:57.354Z,20.67
2022-08-14T21:22:26.803Z,15.60
2022-08-14T21:25:01.520Z,15.32
2022-08-14T21:27:29.054Z,13.18
2022-08-14T21:32:50.438Z,12.75
2022-08-14T21:35:25.924Z,13.70
2022-08-14T21:37:53.744Z,18.90
2022-08-14T21:40:41.680Z,21.42
2022-08-14T21:43:17.472Z,24.05
2022-08-14T21:45:51.873Z,22.73
2022-08-14T21:48:29.616Z,20.30
2022-08-14T21:53:59.423Z,20.45
2022-08-14T21:56:37.344Z,22.52
2022-08-14T21:59:17.838Z,22.92
2022-08-14T22:02:00.119Z,18.60
2022-08-14T22:04:32.074Z,19.90
2022-08-14T22:07:02.591Z,19.23
2022-08-14T22:09:36.364Z,22.83
2022-08-14T22:12:07.186Z,23.13
2022-08-14T22:14:43.469Z,15.70
2022-08-14T22:17:16.344Z,14.77
2022-08-14T22:19:54.273Z,14.10
2022-08-14T22:22:25.998Z,15.25
2022-08-14T22:25:00.367Z,13.82
2022-08-14T22:27:32.329Z,13.77
2022-08-14T22:30:00.581Z,13.70
2022-08-14T22:32:35.179Z,14.45
2022-08-14T22:35:15.993Z,13.85
2022-08-14T22:37:44.519Z,15.30
2022-08-14T22:40:53.734Z,14.07
2022-08-14T22:43:07.910Z,18.63
2022-08-14T22:45:37.663Z,20.92
2022-08-14T22:48:11.139Z,23.58
2022-08-14T22:50:48.971Z,21.40
2022-08-14T22:53:16.205Z,24.73
2022-08-14T22:55:43.533Z,22.73
2022-08-14T22:58:11.423Z,23.40
2022-08-14T23:00:44.843Z,24.63
2022-08-14T23:03:17.584Z,23.60
2022-08-14T23:05:52.829Z,22.17
2022-08-14T23:08:56.207Z,20.17
2022-08-14T23:11:10.445Z,16.70
2022-08-14T23:13:39.289Z,19.52
2022-08-14T23:16:08.405Z,18.25
2022-08-14T23:21:04.551Z,14.55
2022-08-14T23:23:31.389Z,13.32
2022-08-14T23:26:47.086Z,13.75
2022-08-14T23:28:58.254Z,15.65
2022-08-14T23:31:35.572Z,15.52
2022-08-14T23:34:09.502Z,15.00
2022-08-14T23:36:53.428Z,15.48
2022-08-14T23:39:30.312Z,17.50
2022-08-14T23:42:04.611Z,13.70
2022-08-14T23:44:35.267Z,13.57
2022-08-14T23:47:11.036Z,15.05
2022-08-14T23:49:59.995Z,16.05
2022-08-14T23:52:50.781Z,16.13
2022-08-14T23:55:17.121Z,13.57
2022-08-14T23:57:58.146Z,14.40
